sensor_id;sensor_type;location;lat;lon;timestamp;temperature;humidity
9723;DHT22;4900;49.306;8.500;2023-08-06T00:02:00;19.43;71.60
9723;DHT22;4900;49.306;8.500;2023-08-06T00:04:25;19.43;71.53
9723;DHT22;4900;49.306;8.500;2023-08-06T00:06:51;19.44;71.32
9723;DHT22;4900;49.306;8.500;2023-08-06T00:09:16;19.43;71.26
9723;DHT22;4900;49.306;8.500;2023-08-06T00:11:41;19.44;71.13
9723;DHT22;4900;49.306;8.500;2023-08-06T00:14:09;19.40;71.07
9723;DHT22;4900;49.306;8.500;2023-08-06T00:16:34;19.40;70.99
9723;DHT22;4900;49.306;8.500;2023-08-06T00:19:00;19.39;71.05
9723;DHT22;4900;49.306;8.500;2023-08-06T00:21:25;19.40;71.00
9723;DHT22;4900;49.306;8.500;2023-08-06T00:23:51;19.43;70.88
9723;DHT22;4900;49.306;8.500;2023-08-06T00:26:17;19.43;70.76
9723;DHT22;4900;49.306;8.500;2023-08-06T00:28:42;19.43;70.61
9723;DHT22;4900;49.306;8.500;2023-08-06T00:31:08;19.47;70.68
9723;DHT22;4900;49.306;8.500;2023-08-06T00:33:33;19.47;70.66
9723;DHT22;4900;49.306;8.500;2023-08-06T00:35:59;19.48;70.54
9723;DHT22;4900;49.306;8.500;2023-08-06T00:38:24;19.48;70.63
9723;DHT22;4900;49.306;8.500;2023-08-06T00:40:49;19.48;70.66
9723;DHT22;4900;49.306;8.500;2023-08-06T00:43:15;19.51;70.56
9723;DHT22;4900;49.306;8.500;2023-08-06T00:45:40;19.50;70.55
9723;DHT22;4900;49.306;8.500;2023-08-06T00:48:06;19.55;70.47
9723;DHT22;4900;49.306;8.500;2023-08-06T00:50:32;19.55;70.44
9723;DHT22;4900;49.306;8.500;2023-08-06T00:52:58;19.54;70.55
9723;DHT22;4900;49.306;8.500;2023-08-06T00:55:24;19.57;70.56
9723;DHT22;4900;49.306;8.500;2023-08-06T00:57:50;19.58;70.60
9723;DHT22;4900;49.306;8.500;2023-08-06T01:00:16;19.57;70.75
9723;DHT22;4900;49.306;8.500;2023-08-06T01:02:42;19.55;70.68
9723;DHT22;4900;49.306;8.500;2023-08-06T01:05:07;19.57;70.46
9723;DHT22;4900;49.306;8.500;2023-08-06T01:15:47;19.51;69.92
9723;DHT22;4900;49.306;8.500;2023-08-06T01:18:14;19.53;69.55
9723;DHT22;4900;49.306;8.500;2023-08-06T01:20:40;19.50;69.31
9723;DHT22;4900;49.306;8.500;2023-08-06T01:23:05;19.46;69.11
9723;DHT22;4900;49.306;8.500;2023-08-06T01:25:35;19.44;68.92
9723;DHT22;4900;49.306;8.500;2023-08-06T01:28:11;19.40;68.65
9723;DHT22;4900;49.306;8.500;2023-08-06T01:30:41;19.40;68.47
9723;DHT22;4900;49.306;8.500;2023-08-06T01:33:09;19.33;68.43
9723;DHT22;4900;49.306;8.500;2023-08-06T01:35:35;19.24;68.43
9723;DHT22;4900;49.306;8.500;2023-08-06T01:38:02;19.22;68.49
9723;DHT22;4900;49.306;8.500;2023-08-06T01:40:28;19.20;68.46
9723;DHT22;4900;49.306;8.500;2023-08-06T01:42:54;19.18;68.66
9723;DHT22;4900;49.306;8.500;2023-08-06T01:45:20;19.13;68.70
9723;DHT22;4900;49.306;8.500;2023-08-06T01:47:45;19.14;68.75
9723;DHT22;4900;49.306;8.500;2023-08-06T01:50:11;19.14;68.85
9723;DHT22;4900;49.306;8.500;2023-08-06T01:52:36;19.06;69.04
9723;DHT22;4900;49.306;8.500;2023-08-06T01:55:02;19.07;69.08
9723;DHT22;4900;49.306;8.500;2023-08-06T01:57:28;19.07;69.13
9723;DHT22;4900;49.306;8.500;2023-08-06T01:59:53;19.07;69.09
9723;DHT22;4900;49.306;8.500;2023-08-06T02:02:18;19.10;69.06
9723;DHT22;4900;49.306;8.500;2023-08-06T02:04:44;19.10;69.09
9723;DHT22;4900;49.306;8.500;2023-08-06T02:07:10;19.10;68.98
9723;DHT22;4900;49.306;8.500;2023-08-06T02:09:35;19.13;68.90
9723;DHT22;4900;49.306;8.500;2023-08-06T02:12:01;19.12;68.91
9723;DHT22;4900;49.306;8.500;2023-08-06T02:14:27;19.09;68.97
9723;DHT22;4900;49.306;8.500;2023-08-06T02:16:52;19.03;69.06
9723;DHT22;4900;49.306;8.500;2023-08-06T02:19:18;19.07;69.07
9723;DHT22;4900;49.306;8.500;2023-08-06T02:21:43;19.06;69.24
9723;DHT22;4900;49.306;8.500;2023-08-06T02:24:09;18.91;69.74
9723;DHT22;4900;49.306;8.500;2023-08-06T02:26:34;18.88;69.99
9723;DHT22;4900;49.306;8.500;2023-08-06T02:28:59;18.82;70.05
9723;DHT22;4900;49.306;8.500;2023-08-06T02:31:25;18.79;70.28
9723;DHT22;4900;49.306;8.500;2023-08-06T02:33:50;18.72;70.46
9723;DHT22;4900;49.306;8.500;2023-08-06T02:36:16;18.64;70.77
9723;DHT22;4900;49.306;8.500;2023-08-06T02:38:41;18.61;70.63
9723;DHT22;4900;49.306;8.500;2023-08-06T02:41:06;18.51;70.83
9723;DHT22;4900;49.306;8.500;2023-08-06T02:43:32;18.50;70.72
9723;DHT22;4900;49.306;8.500;2023-08-06T02:45:58;18.54;70.64
9723;DHT22;4900;49.306;8.500;2023-08-06T02:48:24;18.44;70.86
9723;DHT22;4900;49.306;8.500;2023-08-06T02:50:49;18.40;70.86
9723;DHT22;4900;49.306;8.500;2023-08-06T02:53:14;18.30;71.35
9723;DHT22;4900;49.306;8.500;2023-08-06T02:55:45;18.23;71.62
9723;DHT22;4900;49.306;8.500;2023-08-06T02:58:13;18.23;71.68
9723;DHT22;4900;49.306;8.500;2023-08-06T03:00:38;18.20;71.81
9723;DHT22;4900;49.306;8.500;2023-08-06T03:03:04;18.13;72.05
9723;DHT22;4900;49.306;8.500;2023-08-06T03:05:29;18.17;71.97
9723;DHT22;4900;49.306;8.500;2023-08-06T03:07:55;18.19;72.01
9723;DHT22;4900;49.306;8.500;2023-08-06T03:10:21;18.10;72.49
9723;DHT22;4900;49.306;8.500;2023-08-06T03:12:46;18.12;72.48
9723;DHT22;4900;49.306;8.500;2023-08-06T03:15:12;18.16;72.44
9723;DHT22;4900;49.306;8.500;2023-08-06T03:17:37;18.19;72.32
9723;DHT22;4900;49.306;8.500;2023-08-06T03:20:03;18.20;72.40
9723;DHT22;4900;49.306;8.500;2023-08-06T03:22:28;18.20;72.33
9723;DHT22;4900;49.306;8.500;2023-08-06T03:24:54;18.19;72.28
9723;DHT22;4900;49.306;8.500;2023-08-06T03:27:19;18.22;72.29
9723;DHT22;4900;49.306;8.500;2023-08-06T03:29:44;18.30;71.98
9723;DHT22;4900;49.306;8.500;2023-08-06T03:32:10;18.27;71.94
9723;DHT22;4900;49.306;8.500;2023-08-06T03:34:35;18.30;71.82
9723;DHT22;4900;49.306;8.500;2023-08-06T03:37:01;18.34;71.70
9723;DHT22;4900;49.306;8.500;2023-08-06T03:39:26;18.30;71.83
9723;DHT22;4900;49.306;8.500;2023-08-06T03:41:51;18.36;71.60
9723;DHT22;4900;49.306;8.500;2023-08-06T03:44:17;18.33;71.55
9723;DHT22;4900;49.306;8.500;2023-08-06T03:46:42;18.22;72.01
9723;DHT22;4900;49.306;8.500;2023-08-06T03:49:08;18.23;71.90
9723;DHT22;4900;49.306;8.500;2023-08-06T03:51:33;18.24;71.75
9723;DHT22;4900;49.306;8.500;2023-08-06T03:53:58;18.26;71.69
9723;DHT22;4900;49.306;8.500;2023-08-06T03:56:24;18.29;71.51
9723;DHT22;4900;49.306;8.500;2023-08-06T03:58:49;18.27;71.49
9723;DHT22;4900;49.306;8.500;2023-08-06T04:01:15;18.23;71.34
9723;DHT22;4900;49.306;8.500;2023-08-06T04:03:40;18.14;71.54
9723;DHT22;4900;49.306;8.500;2023-08-06T04:06:07;18.16;71.50
9723;DHT22;4900;49.306;8.500;2023-08-06T04:08:33;18.13;71.50
9723;DHT22;4900;49.306;8.500;2023-08-06T04:10:58;18.09;71.61
9723;DHT22;4900;49.306;8.500;2023-08-06T04:13:23;17.96;71.99
9723;DHT22;4900;49.306;8.500;2023-08-06T04:15:49;18.13;71.63
9723;DHT22;4900;49.306;8.500;2023-08-06T04:18:15;18.14;71.57
9723;DHT22;4900;49.306;8.500;2023-08-06T04:20:45;18.12;71.45
9723;DHT22;4900;49.306;8.500;2023-08-06T04:23:10;18.20;71.30
9723;DHT22;4900;49.306;8.500;2023-08-06T04:25:36;18.13;71.27
9723;DHT22;4900;49.306;8.500;2023-08-06T04:28:01;18.19;71.06
9723;DHT22;4900;49.306;8.500;2023-08-06T04:30:27;18.19;70.96
9723;DHT22;4900;49.306;8.500;2023-08-06T04:32:52;18.20;70.92
9723;DHT22;4900;49.306;8.500;2023-08-06T04:35:17;18.13;70.94
9723;DHT22;4900;49.306;8.500;2023-08-06T04:37:43;18.10;71.03
9723;DHT22;4900;49.306;8.500;2023-08-06T04:40:09;18.12;71.06
9723;DHT22;4900;49.306;8.500;2023-08-06T04:42:34;18.19;70.85
9723;DHT22;4900;49.306;8.500;2023-08-06T04:45:01;18.16;70.84
9723;DHT22;4900;49.306;8.500;2023-08-06T04:47:27;18.29;70.55
9723;DHT22;4900;49.306;8.500;2023-08-06T04:49:53;18.30;70.44
9723;DHT22;4900;49.306;8.500;2023-08-06T04:52:18;18.31;70.37
9723;DHT22;4900;49.306;8.500;2023-08-06T04:54:44;18.30;70.41
9723;DHT22;4900;49.306;8.500;2023-08-06T04:57:09;18.24;70.62
9723;DHT22;4900;49.306;8.500;2023-08-06T04:59:35;18.27;70.44
9723;DHT22;4900;49.306;8.500;2023-08-06T05:02:00;18.27;70.52
9723;DHT22;4900;49.306;8.500;2023-08-06T05:04:26;18.27;70.85
9723;DHT22;4900;49.306;8.500;2023-08-06T05:06:52;18.27;71.22
9723;DHT22;4900;49.306;8.500;2023-08-06T05:09:17;18.29;71.33
9723;DHT22;4900;49.306;8.500;2023-08-06T05:11:43;18.10;72.09
9723;DHT22;4900;49.306;8.500;2023-08-06T05:14:08;18.06;72.25
9723;DHT22;4900;49.306;8.500;2023-08-06T05:16:33;17.94;72.70
9723;DHT22;4900;49.306;8.500;2023-08-06T05:18:59;17.94;72.71
9723;DHT22;4900;49.306;8.500;2023-08-06T05:21:24;17.85;72.84
9723;DHT22;4900;49.306;8.500;2023-08-06T05:23:49;17.88;72.85
9723;DHT22;4900;49.306;8.500;2023-08-06T05:26:15;17.95;72.62
9723;DHT22;4900;49.306;8.500;2023-08-06T05:28:44;17.86;73.04
9723;DHT22;4900;49.306;8.500;2023-08-06T05:31:09;17.84;73.26
9723;DHT22;4900;49.306;8.500;2023-08-06T05:33:34;17.85;73.18
9723;DHT22;4900;49.306;8.500;2023-08-06T05:36:00;17.81;73.22
9723;DHT22;4900;49.306;8.500;2023-08-06T05:38:25;17.88;73.08
9723;DHT22;4900;49.306;8.500;2023-08-06T05:40:51;17.92;73.13
9723;DHT22;4900;49.306;8.500;2023-08-06T05:43:16;17.92;73.04
9723;DHT22;4900;49.306;8.500;2023-08-06T05:45:45;17.95;72.99
9723;DHT22;4900;49.306;8.500;2023-08-06T05:48:11;17.91;72.91
9723;DHT22;4900;49.306;8.500;2023-08-06T05:50:37;17.88;72.99
9723;DHT22;4900;49.306;8.500;2023-08-06T05:53:02;17.91;72.81
9723;DHT22;4900;49.306;8.500;2023-08-06T05:55:28;18.03;72.50
9723;DHT22;4900;49.306;8.500;2023-08-06T05:57:53;18.06;72.30
9723;DHT22;4900;49.306;8.500;2023-08-06T06:00:20;18.19;72.04
9723;DHT22;4900;49.306;8.500;2023-08-06T06:02:45;18.08;72.29
9723;DHT22;4900;49.306;8.500;2023-08-06T06:05:11;18.12;72.14
9723;DHT22;4900;49.306;8.500;2023-08-06T06:07:36;18.14;72.02
9723;DHT22;4900;49.306;8.500;2023-08-06T06:10:02;18.30;71.78
9723;DHT22;4900;49.306;8.500;2023-08-06T06:12:27;18.47;71.38
9723;DHT22;4900;49.306;8.500;2023-08-06T06:14:52;18.58;71.10
9723;DHT22;4900;49.306;8.500;2023-08-06T06:17:18;18.72;70.61
9723;DHT22;4900;49.306;8.500;2023-08-06T06:19:43;18.65;70.64
9723;DHT22;4900;49.306;8.500;2023-08-06T06:22:09;18.67;70.49
9723;DHT22;4900;49.306;8.500;2023-08-06T06:24:34;18.67;70.42
9723;DHT22;4900;49.306;8.500;2023-08-06T06:27:00;18.63;70.35
9723;DHT22;4900;49.306;8.500;2023-08-06T06:29:25;18.89;69.79
9723;DHT22;4900;49.306;8.500;2023-08-06T06:31:51;19.04;69.38
9723;DHT22;4900;49.306;8.500;2023-08-06T06:34:16;18.95;69.57
9723;DHT22;4900;49.306;8.500;2023-08-06T06:36:41;19.00;69.37
9723;DHT22;4900;49.306;8.500;2023-08-06T06:39:07;19.10;68.90
9723;DHT22;4900;49.306;8.500;2023-08-06T06:41:33;19.13;69.05
9723;DHT22;4900;49.306;8.500;2023-08-06T06:43:58;19.19;68.89
9723;DHT22;4900;49.306;8.500;2023-08-06T06:46:24;19.29;68.45
9723;DHT22;4900;49.306;8.500;2023-08-06T06:48:49;19.46;67.97
9723;DHT22;4900;49.306;8.500;2023-08-06T06:51:15;19.47;67.81
9723;DHT22;4900;49.306;8.500;2023-08-06T06:53:40;19.55;67.57
9723;DHT22;4900;49.306;8.500;2023-08-06T06:56:06;19.67;67.31
9723;DHT22;4900;49.306;8.500;2023-08-06T06:58:32;19.76;67.10
9723;DHT22;4900;49.306;8.500;2023-08-06T07:00:57;19.78;66.81
9723;DHT22;4900;49.306;8.500;2023-08-06T07:03:23;19.67;67.20
9723;DHT22;4900;49.306;8.500;2023-08-06T07:05:49;19.90;66.76
9723;DHT22;4900;49.306;8.500;2023-08-06T07:08:15;20.01;66.62
9723;DHT22;4900;49.306;8.500;2023-08-06T07:10:41;19.98;66.54
9723;DHT22;4900;49.306;8.500;2023-08-06T07:13:07;19.92;66.65
9723;DHT22;4900;49.306;8.500;2023-08-06T07:15:33;20.03;66.53
9723;DHT22;4900;49.306;8.500;2023-08-06T07:17:58;20.21;66.11
9723;DHT22;4900;49.306;8.500;2023-08-06T07:20:24;20.27;65.89
9723;DHT22;4900;49.306;8.500;2023-08-06T07:22:49;20.26;65.88
9723;DHT22;4900;49.306;8.500;2023-08-06T07:25:16;20.17;66.00
9723;DHT22;4900;49.306;8.500;2023-08-06T07:27:41;20.36;65.48
9723;DHT22;4900;49.306;8.500;2023-08-06T07:30:07;20.33;65.59
9723;DHT22;4900;49.306;8.500;2023-08-06T07:32:33;20.21;65.73
9723;DHT22;4900;49.306;8.500;2023-08-06T07:34:58;20.19;65.79
9723;DHT22;4900;49.306;8.500;2023-08-06T07:37:26;20.26;65.75
9723;DHT22;4900;49.306;8.500;2023-08-06T07:39:54;20.17;66.23
9723;DHT22;4900;49.306;8.500;2023-08-06T07:42:20;20.21;66.50
9723;DHT22;4900;49.306;8.500;2023-08-06T07:44:51;20.14;66.61
9723;DHT22;4900;49.306;8.500;2023-08-06T07:47:18;20.12;66.74
9723;DHT22;4900;49.306;8.500;2023-08-06T07:49:43;20.23;66.67
9723;DHT22;4900;49.306;8.500;2023-08-06T07:52:09;20.29;66.77
9723;DHT22;4900;49.306;8.500;2023-08-06T07:54:34;20.51;66.62
9723;DHT22;4900;49.306;8.500;2023-08-06T07:56:59;20.93;65.75
9723;DHT22;4900;49.306;8.500;2023-08-06T07:59:25;21.24;64.85
9723;DHT22;4900;49.306;8.500;2023-08-06T08:01:50;21.43;64.42
9723;DHT22;4900;49.306;8.500;2023-08-06T08:04:19;21.53;64.10
9723;DHT22;4900;49.306;8.500;2023-08-06T08:06:44;21.72;63.63
9723;DHT22;4900;49.306;8.500;2023-08-06T08:09:09;21.86;63.62
9723;DHT22;4900;49.306;8.500;2023-08-06T08:11:35;21.91;63.70
9723;DHT22;4900;49.306;8.500;2023-08-06T08:14:00;22.10;63.36
9723;DHT22;4900;49.306;8.500;2023-08-06T08:16:26;22.26;63.10
9723;DHT22;4900;49.306;8.500;2023-08-06T08:18:51;22.12;63.57
9723;DHT22;4900;49.306;8.500;2023-08-06T08:21:16;22.08;63.71
9723;DHT22;4900;49.306;8.500;2023-08-06T08:23:42;21.72;64.79
9723;DHT22;4900;49.306;8.500;2023-08-06T08:26:09;21.61;65.08
9723;DHT22;4900;49.306;8.500;2023-08-06T08:28:34;21.53;65.51
9723;DHT22;4900;49.306;8.500;2023-08-06T08:30:59;21.61;65.31
9723;DHT22;4900;49.306;8.500;2023-08-06T08:33:25;21.65;65.08
9723;DHT22;4900;49.306;8.500;2023-08-06T08:35:50;22.24;63.71
9723;DHT22;4900;49.306;8.500;2023-08-06T08:38:16;22.98;61.87
9723;DHT22;4900;49.306;8.500;2023-08-06T08:40:46;23.85;59.40
9723;DHT22;4900;49.306;8.500;2023-08-06T08:43:13;24.00;58.56
9723;DHT22;4900;49.306;8.500;2023-08-06T08:45:39;24.02;57.96
9723;DHT22;4900;49.306;8.500;2023-08-06T08:48:08;24.57;56.72
9723;DHT22;4900;49.306;8.500;2023-08-06T08:50:37;24.37;57.00
9723;DHT22;4900;49.306;8.500;2023-08-06T08:53:02;24.30;57.39
9723;DHT22;4900;49.306;8.500;2023-08-06T08:55:28;24.39;56.93
9723;DHT22;4900;49.306;8.500;2023-08-06T08:57:54;24.20;57.24
9723;DHT22;4900;49.306;8.500;2023-08-06T09:00:19;23.93;57.56
9723;DHT22;4900;49.306;8.500;2023-08-06T09:02:45;23.64;58.53
9723;DHT22;4900;49.306;8.500;2023-08-06T09:05:12;23.84;58.13
9723;DHT22;4900;49.306;8.500;2023-08-06T09:07:42;23.62;58.83
9723;DHT22;4900;49.306;8.500;2023-08-06T09:10:11;23.54;58.94
9723;DHT22;4900;49.306;8.500;2023-08-06T09:12:39;23.44;59.50
9723;DHT22;4900;49.306;8.500;2023-08-06T09:15:05;23.64;58.74
9723;DHT22;4900;49.306;8.500;2023-08-06T09:17:31;24.40;56.86
9723;DHT22;4900;49.306;8.500;2023-08-06T09:19:56;24.55;55.74
9723;DHT22;4900;49.306;8.500;2023-08-06T09:22:22;24.86;55.07
9723;DHT22;4900;49.306;8.500;2023-08-06T09:24:48;24.64;54.88
9723;DHT22;4900;49.306;8.500;2023-08-06T09:27:14;24.23;55.75
9723;DHT22;4900;49.306;8.500;2023-08-06T09:29:43;23.86;56.15
9723;DHT22;4900;49.306;8.500;2023-08-06T09:32:10;23.81;56.38
9723;DHT22;4900;49.306;8.500;2023-08-06T09:34:38;23.31;57.45
9723;DHT22;4900;49.306;8.500;2023-08-06T09:37:04;23.27;57.75
9723;DHT22;4900;49.306;8.500;2023-08-06T09:39:30;23.09;58.27
9723;DHT22;4900;49.306;8.500;2023-08-06T09:41:57;22.95;58.56
9723;DHT22;4900;49.306;8.500;2023-08-06T09:44:24;22.51;59.59
9723;DHT22;4900;49.306;8.500;2023-08-06T09:46:52;22.41;59.81
9723;DHT22;4900;49.306;8.500;2023-08-06T09:51:53;21.92;60.74
9723;DHT22;4900;49.306;8.500;2023-08-06T09:54:24;21.65;61.47
9723;DHT22;4900;49.306;8.500;2023-08-06T09:56:51;21.75;61.25
9723;DHT22;4900;49.306;8.500;2023-08-06T09:59:17;21.69;61.21
9723;DHT22;4900;49.306;8.500;2023-08-06T10:01:43;21.85;60.57
9723;DHT22;4900;49.306;8.500;2023-08-06T10:04:09;21.91;60.38
9723;DHT22;4900;49.306;8.500;2023-08-06T10:06:37;21.85;60.66
9723;DHT22;4900;49.306;8.500;2023-08-06T10:09:03;21.89;60.61
9723;DHT22;4900;49.306;8.500;2023-08-06T10:11:30;21.85;60.65
9723;DHT22;4900;49.306;8.500;2023-08-06T10:14:02;21.71;60.80
9723;DHT22;4900;49.306;8.500;2023-08-06T10:16:29;21.50;61.34
9723;DHT22;4900;49.306;8.500;2023-08-06T10:18:56;21.68;60.90
9723;DHT22;4900;49.306;8.500;2023-08-06T10:21:25;21.50;61.17
9723;DHT22;4900;49.306;8.500;2023-08-06T10:23:56;21.37;61.49
9723;DHT22;4900;49.306;8.500;2023-08-06T10:26:28;21.29;61.43
9723;DHT22;4900;49.306;8.500;2023-08-06T10:28:54;21.03;61.59
9723;DHT22;4900;49.306;8.500;2023-08-06T10:32:06;20.86;61.63
9723;DHT22;4900;49.306;8.500;2023-08-06T10:34:07;20.89;61.47
9723;DHT22;4900;49.306;8.500;2023-08-06T10:36:32;20.76;61.61
9723;DHT22;4900;49.306;8.500;2023-08-06T10:38:58;20.89;61.40
9723;DHT22;4900;49.306;8.500;2023-08-06T10:41:28;20.76;61.73
9723;DHT22;4900;49.306;8.500;2023-08-06T10:44:07;20.85;61.28
9723;DHT22;4900;49.306;8.500;2023-08-06T10:46:33;20.59;61.77
9723;DHT22;4900;49.306;8.500;2023-08-06T10:48:59;20.44;62.08
9723;DHT22;4900;49.306;8.500;2023-08-06T10:51:25;20.54;61.92
9723;DHT22;4900;49.306;8.500;2023-08-06T10:53:51;20.48;62.20
9723;DHT22;4900;49.306;8.500;2023-08-06T10:56:17;20.41;62.55
9723;DHT22;4900;49.306;8.500;2023-08-06T10:58:44;20.13;63.23
9723;DHT22;4900;49.306;8.500;2023-08-06T11:01:10;20.16;63.27
9723;DHT22;4900;49.306;8.500;2023-08-06T11:03:37;20.02;63.78
9723;DHT22;4900;49.306;8.500;2023-08-06T11:06:03;20.05;63.83
9723;DHT22;4900;49.306;8.500;2023-08-06T11:08:33;19.96;64.40
9723;DHT22;4900;49.306;8.500;2023-08-06T11:13:36;19.53;65.17
9723;DHT22;4900;49.306;8.500;2023-08-06T11:16:02;19.64;64.91
9723;DHT22;4900;49.306;8.500;2023-08-06T11:18:28;19.58;65.47
9723;DHT22;4900;49.306;8.500;2023-08-06T11:20:54;19.54;65.84
9723;DHT22;4900;49.306;8.500;2023-08-06T11:23:19;19.53;65.85
9723;DHT22;4900;49.306;8.500;2023-08-06T11:25:45;19.34;66.47
9723;DHT22;4900;49.306;8.500;2023-08-06T11:28:12;19.40;66.34
9723;DHT22;4900;49.306;8.500;2023-08-06T11:30:38;19.34;66.75
9723;DHT22;4900;49.306;8.500;2023-08-06T11:33:03;19.37;66.84
9723;DHT22;4900;49.306;8.500;2023-08-06T11:35:28;19.50;66.49
9723;DHT22;4900;49.306;8.500;2023-08-06T11:37:54;19.44;66.59
9723;DHT22;4900;49.306;8.500;2023-08-06T11:40:20;19.65;65.86
9723;DHT22;4900;49.306;8.500;2023-08-06T11:42:46;19.74;65.34
9723;DHT22;4900;49.306;8.500;2023-08-06T11:45:12;19.82;64.95
9723;DHT22;4900;49.306;8.500;2023-08-06T11:47:38;19.85;64.70
9723;DHT22;4900;49.306;8.500;2023-08-06T11:50:06;19.99;64.26
9723;DHT22;4900;49.306;8.500;2023-08-06T11:52:31;20.01;63.72
9723;DHT22;4900;49.306;8.500;2023-08-06T11:55:04;20.09;62.97
9723;DHT22;4900;49.306;8.500;2023-08-06T11:57:36;20.13;62.85
9723;DHT22;4900;49.306;8.500;2023-08-06T12:00:05;20.27;62.44
9723;DHT22;4900;49.306;8.500;2023-08-06T12:02:32;20.36;62.39
9723;DHT22;4900;49.306;8.500;2023-08-06T12:05:14;20.33;62.40
9723;DHT22;4900;49.306;8.500;2023-08-06T12:07:48;20.19;62.73
9723;DHT22;4900;49.306;8.500;2023-08-06T12:10:14;20.34;62.38
9723;DHT22;4900;49.306;8.500;2023-08-06T12:12:40;20.34;62.52
9723;DHT22;4900;49.306;8.500;2023-08-06T12:15:07;20.37;62.56
9723;DHT22;4900;49.306;8.500;2023-08-06T12:17:33;20.27;62.95
9723;DHT22;4900;49.306;8.500;2023-08-06T12:19:58;20.14;63.27
9723;DHT22;4900;49.306;8.500;2023-08-06T12:22:24;19.82;64.01
9723;DHT22;4900;49.306;8.500;2023-08-06T12:24:52;19.74;64.51
9723;DHT22;4900;49.306;8.500;2023-08-06T12:27:17;19.89;64.34
9723;DHT22;4900;49.306;8.500;2023-08-06T12:29:47;19.92;64.33
9723;DHT22;4900;49.306;8.500;2023-08-06T12:32:14;19.79;64.47
9723;DHT22;4900;49.306;8.500;2023-08-06T12:34:41;19.68;65.01
9723;DHT22;4900;49.306;8.500;2023-08-06T12:37:07;19.50;66.00
9723;DHT22;4900;49.306;8.500;2023-08-06T12:39:33;19.68;65.82
9723;DHT22;4900;49.306;8.500;2023-08-06T12:42:02;19.50;66.16
9723;DHT22;4900;49.306;8.500;2023-08-06T12:44:28;19.51;66.20
9723;DHT22;4900;49.306;8.500;2023-08-06T12:46:54;19.61;65.92
9723;DHT22;4900;49.306;8.500;2023-08-06T12:49:20;19.59;65.60
9723;DHT22;4900;49.306;8.500;2023-08-06T12:51:52;19.69;65.30
9723;DHT22;4900;49.306;8.500;2023-08-06T12:54:17;19.90;64.81
9723;DHT22;4900;49.306;8.500;2023-08-06T12:56:44;19.82;64.81
9723;DHT22;4900;49.306;8.500;2023-08-06T12:59:09;19.82;64.65
9723;DHT22;4900;49.306;8.500;2023-08-06T13:01:37;19.78;64.58
9723;DHT22;4900;49.306;8.500;2023-08-06T13:04:03;20.01;63.87
9723;DHT22;4900;49.306;8.500;2023-08-06T13:06:28;20.12;63.54
9723;DHT22;4900;49.306;8.500;2023-08-06T13:08:54;20.20;63.21
9723;DHT22;4900;49.306;8.500;2023-08-06T13:11:19;20.38;62.54
9723;DHT22;4900;49.306;8.500;2023-08-06T13:13:45;20.45;62.05
9723;DHT22;4900;49.306;8.500;2023-08-06T13:16:10;20.41;62.09
9723;DHT22;4900;49.306;8.500;2023-08-06T13:18:36;20.45;62.60
9723;DHT22;4900;49.306;8.500;2023-08-06T13:21:01;20.55;62.60
9723;DHT22;4900;49.306;8.500;2023-08-06T13:23:27;20.43;63.25
9723;DHT22;4900;49.306;8.500;2023-08-06T13:25:53;20.48;63.44
9723;DHT22;4900;49.306;8.500;2023-08-06T13:28:18;20.20;64.35
9723;DHT22;4900;49.306;8.500;2023-08-06T13:30:44;20.27;64.20
9723;DHT22;4900;49.306;8.500;2023-08-06T13:33:10;20.31;64.33
9723;DHT22;4900;49.306;8.500;2023-08-06T13:35:35;20.48;64.09
9723;DHT22;4900;49.306;8.500;2023-08-06T13:38:01;20.45;64.27
9723;DHT22;4900;49.306;8.500;2023-08-06T13:40:33;20.51;63.95
9723;DHT22;4900;49.306;8.500;2023-08-06T13:43:00;20.51;63.86
9723;DHT22;4900;49.306;8.500;2023-08-06T13:45:25;20.48;63.67
9723;DHT22;4900;49.306;8.500;2023-08-06T13:47:51;20.75;63.17
9723;DHT22;4900;49.306;8.500;2023-08-06T13:50:16;20.86;63.19
9723;DHT22;4900;49.306;8.500;2023-08-06T13:52:42;21.07;63.10
9723;DHT22;4900;49.306;8.500;2023-08-06T13:55:08;21.13;62.97
9723;DHT22;4900;49.306;8.500;2023-08-06T13:57:34;21.00;63.11
9723;DHT22;4900;49.306;8.500;2023-08-06T14:00:00;20.99;63.40
9723;DHT22;4900;49.306;8.500;2023-08-06T14:02:26;20.89;63.71
9723;DHT22;4900;49.306;8.500;2023-08-06T14:04:54;20.86;63.58
9723;DHT22;4900;49.306;8.500;2023-08-06T14:07:20;20.92;63.47
9723;DHT22;4900;49.306;8.500;2023-08-06T14:09:46;20.79;63.90
9723;DHT22;4900;49.306;8.500;2023-08-06T14:12:12;21.03;63.42
9723;DHT22;4900;49.306;8.500;2023-08-06T14:14:38;20.92;63.81
9723;DHT22;4900;49.306;8.500;2023-08-06T14:17:03;20.98;63.45
9723;DHT22;4900;49.306;8.500;2023-08-06T14:19:29;21.06;63.00
9723;DHT22;4900;49.306;8.500;2023-08-06T14:21:55;21.17;62.59
9723;DHT22;4900;49.306;8.500;2023-08-06T14:24:20;21.06;62.93
9723;DHT22;4900;49.306;8.500;2023-08-06T14:26:46;21.04;62.94
9723;DHT22;4900;49.306;8.500;2023-08-06T14:29:11;21.10;62.92
9723;DHT22;4900;49.306;8.500;2023-08-06T14:31:39;21.17;62.94
9723;DHT22;4900;49.306;8.500;2023-08-06T14:34:04;21.17;63.04
9723;DHT22;4900;49.306;8.500;2023-08-06T14:36:30;21.20;63.08
9723;DHT22;4900;49.306;8.500;2023-08-06T14:38:55;21.23;63.14
9723;DHT22;4900;49.306;8.500;2023-08-06T14:41:21;21.38;62.92
9723;DHT22;4900;49.306;8.500;2023-08-06T14:43:46;21.11;63.54
9723;DHT22;4900;49.306;8.500;2023-08-06T14:46:12;20.96;63.62
9723;DHT22;4900;49.306;8.500;2023-08-06T14:48:37;20.75;64.28
9723;DHT22;4900;49.306;8.500;2023-08-06T14:51:04;20.83;64.45
9723;DHT22;4900;49.306;8.500;2023-08-06T14:53:29;20.68;65.15
9723;DHT22;4900;49.306;8.500;2023-08-06T14:55:54;20.64;65.70
9723;DHT22;4900;49.306;8.500;2023-08-06T14:58:20;20.31;66.68
9723;DHT22;4900;49.306;8.500;2023-08-06T15:00:45;20.26;67.29
9723;DHT22;4900;49.306;8.500;2023-08-06T15:03:11;20.29;67.65
9723;DHT22;4900;49.306;8.500;2023-08-06T15:05:36;20.17;67.88
9723;DHT22;4900;49.306;8.500;2023-08-06T15:08:02;20.16;68.10
9723;DHT22;4900;49.306;8.500;2023-08-06T15:10:28;20.21;68.07
9723;DHT22;4900;49.306;8.500;2023-08-06T15:12:53;20.24;68.13
9723;DHT22;4900;49.306;8.500;2023-08-06T15:15:19;20.33;67.77
9723;DHT22;4900;49.306;8.500;2023-08-06T15:17:45;20.57;67.32
9723;DHT22;4900;49.306;8.500;2023-08-06T15:20:12;20.59;67.17
9723;DHT22;4900;49.306;8.500;2023-08-06T15:22:38;20.78;66.45
9723;DHT22;4900;49.306;8.500;2023-08-06T15:25:04;20.68;66.32
9723;DHT22;4900;49.306;8.500;2023-08-06T15:27:29;20.64;65.60
9723;DHT22;4900;49.306;8.500;2023-08-06T15:29:55;20.48;65.85
9723;DHT22;4900;49.306;8.500;2023-08-06T15:32:21;20.36;66.12
9723;DHT22;4900;49.306;8.500;2023-08-06T15:34:47;20.20;66.00
9723;DHT22;4900;49.306;8.500;2023-08-06T15:37:13;20.29;65.86
9723;DHT22;4900;49.306;8.500;2023-08-06T15:39:38;20.21;66.23
9723;DHT22;4900;49.306;8.500;2023-08-06T15:42:05;19.86;67.38
9723;DHT22;4900;49.306;8.500;2023-08-06T15:44:31;19.83;67.45
9723;DHT22;4900;49.306;8.500;2023-08-06T15:46:56;19.74;67.89
9723;DHT22;4900;49.306;8.500;2023-08-06T15:49:22;19.69;67.89
9723;DHT22;4900;49.306;8.500;2023-08-06T15:51:47;19.64;68.23
9723;DHT22;4900;49.306;8.500;2023-08-06T15:54:12;19.61;68.09
9723;DHT22;4900;49.306;8.500;2023-08-06T15:56:38;19.40;68.45
9723;DHT22;4900;49.306;8.500;2023-08-06T15:59:26;19.37;68.38
9723;DHT22;4900;49.306;8.500;2023-08-06T16:01:52;19.41;68.22
9723;DHT22;4900;49.306;8.500;2023-08-06T16:04:18;19.24;68.46
9723;DHT22;4900;49.306;8.500;2023-08-06T16:06:44;19.34;68.43
9723;DHT22;4900;49.306;8.500;2023-08-06T16:09:09;19.33;68.36